X21 weather

Arthur Dunn Air Park
Titusville, Florida, United States

Public forecast

Using degrees Fahrenheit for public forecast. Weather courtesy of forecast.io.

METAR (pilot weather report)

Closest report is Space Coast Regional Airport, 6.7 nm (12.5 km) SSE. Retrieved 2019/08/18 17:48 UTC (17 minutes ago):

KTIX 181748Z VRB04KT 7SM SCT042 BKN050 34/22 A3011

TAF (pilot weather forecast)

Closest forecast is Space Coast Regional Airport, 6.7 nm (12.5 km) SSE. Retrieved 2019/08/18 18:24 UTC (0 seconds ago):

TAF KTIX 181722Z 1818/1918 18006KT P6SM SCT035 SCT120 SCT200 FM181900 13008KT P6SM VCTS SCT040CB BKN150 BKN250 FM182300 16006KT P6SM SCT035 BKN070 BKN250 FM190100 VRB03KT P6SM FEW030 SCT090 BKN250 FM191500 14006KT P6SM FEW030 BKN250